createdAt,value
2024-01-27T00:00:50.260Z,96235.00
2024-01-27T00:01:50.166Z,96239.00
2024-01-27T00:02:50.267Z,96244.00
2024-01-27T00:03:50.280Z,96246.00
2024-01-27T00:04:50.963Z,96248.00
2024-01-27T00:05:50.363Z,96250.00
2024-01-27T00:06:50.528Z,96253.00
2024-01-27T00:07:50.423Z,96254.00
2024-01-27T00:08:50.474Z,96254.00
2024-01-27T00:09:50.519Z,96253.00
2024-01-27T00:10:50.589Z,96254.00
2024-01-27T00:11:50.614Z,96256.00
2024-01-27T00:12:50.650Z,96257.00
2024-01-27T00:13:50.657Z,96258.00
2024-01-27T00:14:50.790Z,96259.00
2024-01-27T00:15:50.746Z,96257.00
2024-01-27T00:16:50.786Z,96260.00
2024-01-27T00:17:50.890Z,96262.00
2024-01-27T00:18:50.993Z,96265.00
2024-01-27T00:19:51.205Z,96270.00
2024-01-27T00:20:50.917Z,96273.00
2024-01-27T00:21:50.993Z,96276.00
2024-01-27T00:22:51.029Z,96278.00
2024-01-27T00:23:51.102Z,96281.00
2024-01-27T00:24:51.112Z,96280.00
2024-01-27T00:25:51.116Z,96285.00
2024-01-27T00:26:51.255Z,96286.00
2024-01-27T00:27:51.273Z,96291.00
2024-01-27T00:28:51.256Z,96290.00
2024-01-27T00:29:51.729Z,96293.00
2024-01-27T00:30:51.403Z,96292.00
2024-01-27T00:31:51.349Z,96296.00
2024-01-27T00:32:51.513Z,96295.00
2024-01-27T00:33:51.524Z,96297.00
2024-01-27T00:34:51.585Z,96296.00
2024-01-27T00:35:51.580Z,96297.00
2024-01-27T00:36:51.626Z,96301.00
2024-01-27T00:37:51.648Z,96303.00
2024-01-27T00:38:51.772Z,96301.00
2024-01-27T00:39:51.790Z,96305.00
2024-01-27T00:40:51.790Z,96305.00
2024-01-27T00:41:51.865Z,96308.00
2024-01-27T00:42:51.856Z,96310.00
2024-01-27T00:43:51.937Z,96310.00
2024-01-27T00:44:52.018Z,96309.00
2024-01-27T00:45:52.042Z,96312.00
2024-01-27T00:46:52.082Z,96312.00
2024-01-27T00:47:52.434Z,96318.00
2024-01-27T00:48:52.248Z,96318.00
2024-01-27T00:49:52.374Z,96320.00
2024-01-27T00:50:52.283Z,96320.00
2024-01-27T00:51:52.315Z,96321.00
2024-01-27T00:52:53.546Z,96319.00
2024-01-27T00:53:52.440Z,96323.00
2024-01-27T00:54:52.699Z,96325.00
2024-01-27T00:55:52.525Z,96326.00
2024-01-27T00:56:52.582Z,96329.00
2024-01-27T00:57:52.587Z,96334.00
2024-01-27T00:58:52.585Z,96337.00
2024-01-27T00:59:52.677Z,96335.00
2024-01-27T01:00:52.760Z,96338.00
2024-01-27T01:01:52.735Z,96335.00
2024-01-27T01:02:52.849Z,96334.00
2024-01-27T01:03:52.994Z,96332.00
2024-01-27T01:04:52.900Z,96333.00
2024-01-27T01:05:53.017Z,96336.00
2024-01-27T01:06:53.083Z,96336.00
2024-01-27T01:07:53.047Z,96337.00
2024-01-27T01:08:53.150Z,96338.00
2024-01-27T01:09:53.174Z,96339.00
2024-01-27T01:10:53.239Z,96341.00
2024-01-27T01:11:53.334Z,96344.00
2024-01-27T01:12:53.315Z,96345.00
2024-01-27T01:13:53.372Z,96346.00
2024-01-27T01:14:53.439Z,96350.00
2024-01-27T01:15:53.526Z,96350.00
2024-01-27T01:16:53.515Z,96347.00
2024-01-27T01:17:53.569Z,96346.00
2024-01-27T01:18:56.245Z,96344.00
2024-01-27T01:19:53.606Z,96345.00
2024-01-27T01:20:53.627Z,96344.00
2024-01-27T01:21:53.589Z,96348.00
2024-01-27T01:22:53.550Z,96354.00
2024-01-27T01:23:53.603Z,96352.00
2024-01-27T01:24:53.589Z,96354.00
2024-01-27T01:25:53.551Z,96356.00
2024-01-27T01:26:53.671Z,96355.00
2024-01-27T01:27:53.577Z,96358.00
2024-01-27T01:28:53.655Z,96361.00
2024-01-27T01:29:55.601Z,96362.00
2024-01-27T01:30:53.590Z,96363.00
2024-01-27T01:31:53.590Z,96364.00
2024-01-27T01:32:53.782Z,96361.00
2024-01-27T01:33:53.643Z,96362.00
2024-01-27T01:34:53.620Z,96361.00
2024-01-27T01:35:53.752Z,96363.00
2024-01-27T01:36:54.734Z,96359.00
2024-01-27T01:37:53.797Z,96358.00
2024-01-27T01:38:53.843Z,96357.00
2024-01-27T01:39:53.900Z,96354.00
2024-01-27T01:40:53.898Z,96355.00
2024-01-27T01:41:53.996Z,96356.00
2024-01-27T01:42:53.993Z,96357.00
2024-01-27T01:43:54.004Z,96360.00
2024-01-27T01:44:54.077Z,96361.00
2024-01-27T01:45:54.081Z,96363.00
2024-01-27T01:46:54.129Z,96364.00
2024-01-27T01:47:54.427Z,96366.00
2024-01-27T01:48:54.346Z,96366.00
2024-01-27T01:49:54.308Z,96367.00
2024-01-27T01:50:54.307Z,96367.00
2024-01-27T01:51:54.273Z,96369.00
2024-01-27T01:52:54.335Z,96369.00
2024-01-27T01:53:54.395Z,96370.00
2024-01-27T01:54:54.412Z,96368.00
2024-01-27T01:55:54.416Z,96369.00
2024-01-27T01:56:54.452Z,96366.00
2024-01-27T01:57:54.470Z,96365.00
2024-01-27T01:58:54.507Z,96366.00
2024-01-27T01:59:54.782Z,96364.00
2024-01-27T02:00:54.599Z,96368.00
2024-01-27T02:01:54.574Z,96374.00
2024-01-27T02:02:54.592Z,96376.00
2024-01-27T02:03:54.622Z,96375.00
2024-01-27T02:04:54.725Z,96374.00
2024-01-27T02:05:54.744Z,96375.00
2024-01-27T02:06:54.797Z,96378.00
2024-01-27T02:07:54.746Z,96381.00
2024-01-27T02:08:54.793Z,96382.00
2024-01-27T02:09:55.241Z,96386.00
2024-01-27T02:10:54.802Z,96388.00
2024-01-27T02:11:54.829Z,96388.00
2024-01-27T02:12:54.828Z,96388.00
2024-01-27T02:13:54.840Z,96391.00
2024-01-27T02:14:55.068Z,96392.00
2024-01-27T02:15:54.861Z,96395.00
2024-01-27T02:16:54.905Z,96396.00
2024-01-27T02:17:54.988Z,96398.00
2024-01-27T02:18:55.173Z,96400.00
2024-01-27T02:19:55.300Z,96402.00
2024-01-27T02:20:55.065Z,96403.00
2024-01-27T02:21:55.013Z,96408.00
2024-01-27T02:22:55.072Z,96405.00
2024-01-27T02:23:55.092Z,96406.00
2024-01-27T02:24:55.169Z,96406.00
2024-01-27T02:25:55.072Z,96406.00
2024-01-27T02:26:55.168Z,96408.00
2024-01-27T02:27:55.200Z,96409.00
2024-01-27T02:28:55.157Z,96408.00
2024-01-27T02:29:55.225Z,96407.00
2024-01-27T02:30:55.231Z,96407.00
2024-01-27T02:31:55.258Z,96408.00
2024-01-27T02:32:55.314Z,96408.00
2024-01-27T02:33:55.509Z,96409.00
2024-01-27T02:34:55.798Z,96408.00
2024-01-27T02:35:55.381Z,96407.00
2024-01-27T02:36:55.346Z,96405.00
2024-01-27T02:37:55.382Z,96407.00
2024-01-27T02:38:55.428Z,96406.00
2024-01-27T02:39:55.408Z,96405.00
2024-01-27T02:40:55.428Z,96407.00
2024-01-27T02:41:55.458Z,96408.00
2024-01-27T02:42:55.468Z,96409.00
2024-01-27T02:43:55.473Z,96409.00
2024-01-27T02:44:55.829Z,96410.00
2024-01-27T02:45:55.507Z,96411.00
2024-01-27T02:46:55.540Z,96415.00
2024-01-27T02:47:55.682Z,96414.00
2024-01-27T02:48:55.687Z,96417.00
2024-01-27T02:49:55.565Z,96415.00
2024-01-27T02:50:55.574Z,96415.00
2024-01-27T02:51:55.559Z,96414.00
2024-01-27T02:52:55.585Z,96414.00
2024-01-27T02:53:55.621Z,96413.00
2024-01-27T02:54:55.626Z,96411.00
2024-01-27T02:55:55.602Z,96408.00
2024-01-27T02:56:55.691Z,96408.00
2024-01-27T02:57:55.645Z,96409.00
2024-01-27T02:58:55.700Z,96410.00
2024-01-27T02:59:55.760Z,96410.00
2024-01-27T03:00:55.725Z,96413.00
2024-01-27T03:01:55.728Z,96415.00
2024-01-27T03:02:55.793Z,96412.00
2024-01-27T03:03:55.883Z,96411.00
2024-01-27T03:04:55.878Z,96411.00
2024-01-27T03:05:55.845Z,96413.00
2024-01-27T03:06:55.799Z,96414.00
2024-01-27T03:07:55.848Z,96416.00
2024-01-27T03:08:55.874Z,96415.00
2024-01-27T03:09:55.851Z,96417.00
2024-01-27T03:10:55.869Z,96420.00
2024-01-27T03:11:55.939Z,96421.00
2024-01-27T03:12:55.911Z,96422.00
2024-01-27T03:13:55.895Z,96423.00
2024-01-27T03:14:56.345Z,96427.00
2024-01-27T03:15:55.968Z,96432.00
2024-01-27T03:16:55.989Z,96435.00
2024-01-27T03:17:56.061Z,96437.00
2024-01-27T03:18:56.103Z,96439.00
2024-01-27T03:19:56.099Z,96443.00
2024-01-27T03:20:56.103Z,96444.00
2024-01-27T03:21:56.000Z,96445.00
2024-01-27T03:22:56.067Z,96442.00
2024-01-27T03:23:56.098Z,96442.00
2024-01-27T03:24:56.058Z,96444.00
2024-01-27T03:25:56.186Z,96443.00
2024-01-27T03:26:56.148Z,96445.00
2024-01-27T03:27:56.227Z,96446.00
2024-01-27T03:28:56.173Z,96448.00
2024-01-27T03:29:56.247Z,96449.00
2024-01-27T03:30:56.210Z,96448.00
2024-01-27T03:31:56.216Z,96451.00
2024-01-27T03:32:56.299Z,96452.00
2024-01-27T03:33:56.334Z,96454.00
2024-01-27T03:34:56.291Z,96455.00
2024-01-27T03:35:56.298Z,96457.00
2024-01-27T03:36:56.306Z,96459.00
2024-01-27T03:37:56.290Z,96458.00
2024-01-27T03:38:56.428Z,96457.00
2024-01-27T03:39:56.402Z,96461.00
2024-01-27T03:40:56.433Z,96460.00
2024-01-27T03:41:56.462Z,96464.00
2024-01-27T03:42:56.421Z,96463.00
2024-01-27T03:43:56.500Z,96465.00
2024-01-27T03:44:56.593Z,96464.00
2024-01-27T03:45:56.510Z,96467.00
2024-01-27T03:46:56.513Z,96467.00
2024-01-27T03:47:56.649Z,96470.00
2024-01-27T03:48:56.607Z,96472.00
2024-01-27T03:49:56.870Z,96474.00
2024-01-27T03:50:56.627Z,96473.00
2024-01-27T03:51:56.605Z,96474.00
2024-01-27T03:52:56.671Z,96473.00
2024-01-27T03:53:56.666Z,96476.00
2024-01-27T03:54:56.672Z,96478.00
2024-01-27T03:55:56.645Z,96479.00
2024-01-27T03:56:56.726Z,96484.00
2024-01-27T03:57:56.727Z,96485.00
2024-01-27T03:58:56.766Z,96483.00
2024-01-27T03:59:56.838Z,96484.00
2024-01-27T04:00:56.879Z,96482.00
2024-01-27T04:01:56.770Z,96481.00
2024-01-27T04:02:56.818Z,96486.00
2024-01-27T04:03:56.862Z,96488.00
2024-01-27T04:04:57.266Z,96492.00
2024-01-27T04:05:56.985Z,96493.00
2024-01-27T04:06:56.912Z,96493.00
2024-01-27T04:07:56.874Z,96494.00
2024-01-27T04:08:56.984Z,96493.00
2024-01-27T04:09:56.960Z,96494.00
2024-01-27T04:10:56.940Z,96497.00
2024-01-27T04:11:56.962Z,96495.00
2024-01-27T04:12:57.046Z,96497.00
2024-01-27T04:13:57.013Z,96500.00
2024-01-27T04:14:57.328Z,96497.00
2024-01-27T04:15:57.060Z,96497.00
2024-01-27T04:16:57.075Z,96497.00
2024-01-27T04:17:57.186Z,96498.00
2024-01-27T04:18:57.192Z,96499.00
2024-01-27T04:19:57.135Z,96503.00
2024-01-27T04:20:57.132Z,96506.00
2024-01-27T04:21:57.119Z,96505.00
2024-01-27T04:22:57.115Z,96506.00
2024-01-27T04:23:57.255Z,96505.00
2024-01-27T04:24:57.286Z,96507.00
2024-01-27T04:25:57.153Z,96507.00
2024-01-27T04:26:57.233Z,96509.00
2024-01-27T04:27:57.216Z,96509.00
2024-01-27T04:28:57.249Z,96507.00
2024-01-27T04:29:57.316Z,96510.00
2024-01-27T04:30:57.248Z,96511.00
2024-01-27T04:31:57.258Z,96511.00
2024-01-27T04:32:57.417Z,96511.00
2024-01-27T04:33:57.337Z,96513.00
2024-01-27T04:34:57.805Z,96512.00
2024-01-27T04:35:57.336Z,96511.00
2024-01-27T04:36:57.364Z,96514.00
2024-01-27T04:37:57.352Z,96511.00
2024-01-27T04:38:57.421Z,96515.00
2024-01-27T04:39:57.360Z,96518.00
2024-01-27T04:40:57.379Z,96521.00
2024-01-27T04:41:57.428Z,96521.00
2024-01-27T04:42:57.449Z,96519.00
2024-01-27T04:43:57.499Z,96519.00
2024-01-27T04:45:04.794Z,96521.00
2024-01-27T04:46:04.756Z,96523.00
2024-01-27T04:47:04.739Z,96527.00
2024-01-27T04:48:04.875Z,96529.00
2024-01-27T04:49:05.443Z,96527.00
2024-01-27T04:50:04.941Z,96526.00
2024-01-27T04:51:04.868Z,96524.00
2024-01-27T04:52:04.788Z,96525.00
2024-01-27T04:53:04.780Z,96526.00
2024-01-27T04:54:04.828Z,96527.00
2024-01-27T04:55:04.912Z,96527.00
2024-01-27T04:56:04.807Z,96529.00
2024-01-27T04:57:04.857Z,96530.00
2024-01-27T04:58:04.802Z,96532.00
2024-01-27T04:59:04.828Z,96529.00
2024-01-27T05:00:04.843Z,96527.00
2024-01-27T05:01:04.883Z,96526.00
2024-01-27T05:02:04.810Z,96524.00
2024-01-27T05:03:04.949Z,96523.00
2024-01-27T05:04:04.957Z,96523.00
2024-01-27T05:05:04.846Z,96526.00
2024-01-27T05:06:04.911Z,96526.00
2024-01-27T05:07:04.919Z,96526.00
2024-01-27T05:08:04.861Z,96528.00
2024-01-27T05:09:04.858Z,96528.00
2024-01-27T05:10:04.853Z,96528.00
2024-01-27T05:11:04.817Z,96528.00
2024-01-27T05:12:04.910Z,96529.00
2024-01-27T05:13:04.834Z,96528.00
2024-01-27T05:14:04.832Z,96531.00
2024-01-27T05:15:04.882Z,96532.00
2024-01-27T05:16:04.892Z,96532.00
2024-01-27T05:17:04.834Z,96532.00
2024-01-27T05:18:04.921Z,96537.00
2024-01-27T05:19:04.953Z,96540.00
2024-01-27T05:20:05.013Z,96538.00
2024-01-27T05:21:04.860Z,96539.00
2024-01-27T05:22:04.803Z,96540.00
2024-01-27T05:23:04.875Z,96541.00
2024-01-27T05:24:04.947Z,96541.00
2024-01-27T05:25:04.915Z,96546.00
2024-01-27T05:26:04.829Z,96547.00
2024-01-27T05:27:04.931Z,96548.00
2024-01-27T05:28:04.837Z,96549.00
2024-01-27T05:29:04.882Z,96552.00
2024-01-27T05:30:04.894Z,96552.00
2024-01-27T05:31:04.858Z,96553.00
2024-01-27T05:32:04.860Z,96561.00
2024-01-27T05:33:04.928Z,96561.00
2024-01-27T05:34:04.966Z,96566.00
2024-01-27T05:35:04.902Z,96566.00
2024-01-27T05:36:04.905Z,96567.00
2024-01-27T05:37:04.845Z,96569.00
2024-01-27T05:38:04.851Z,96569.00
2024-01-27T05:39:04.881Z,96568.00
2024-01-27T05:40:04.927Z,96570.00
2024-01-27T05:41:04.844Z,96573.00
2024-01-27T05:42:04.866Z,96572.00
2024-01-27T05:43:04.899Z,96575.00
2024-01-27T05:44:04.862Z,96579.00
2024-01-27T05:45:04.920Z,96582.00
2024-01-27T05:46:04.858Z,96584.00
2024-01-27T05:47:06.101Z,96585.00
2024-01-27T05:48:05.022Z,96589.00
2024-01-27T05:49:05.299Z,96591.00
2024-01-27T05:50:04.876Z,96589.00
2024-01-27T05:51:05.026Z,96588.00
2024-01-27T05:52:04.897Z,96594.00
2024-01-27T05:53:04.912Z,96598.00
2024-01-27T05:54:06.258Z,96601.00
2024-01-27T05:55:05.427Z,96607.00
2024-01-27T05:56:05.029Z,96609.00
2024-01-27T05:57:05.141Z,96609.00
2024-01-27T05:58:05.084Z,96610.00
2024-01-27T05:59:05.078Z,96609.00
2024-01-27T06:00:05.133Z,96609.00
2024-01-27T06:01:05.149Z,96608.00
2024-01-27T06:02:05.106Z,96611.00
2024-01-27T06:03:05.364Z,96613.00
2024-01-27T06:04:05.256Z,96620.00
2024-01-27T06:05:05.438Z,96620.00
2024-01-27T06:06:05.350Z,96619.00
2024-01-27T06:07:05.471Z,96620.00
2024-01-27T06:08:05.258Z,96621.00
2024-01-27T06:09:05.951Z,96622.00
2024-01-27T06:10:05.279Z,96623.00
2024-01-27T06:11:08.110Z,96624.00
2024-01-27T06:12:05.325Z,96626.00
2024-01-27T06:13:05.350Z,96628.00
2024-01-27T06:14:05.298Z,96627.00
2024-01-27T06:15:05.488Z,96629.00
2024-01-27T06:16:05.320Z,96631.00
2024-01-27T06:17:05.321Z,96631.00
2024-01-27T06:18:05.460Z,96633.00
2024-01-27T06:19:05.525Z,96631.00
2024-01-27T06:20:07.102Z,96632.00
2024-01-27T06:21:05.448Z,96633.00
2024-01-27T06:22:06.703Z,96635.00
2024-01-27T06:23:05.306Z,96635.00
2024-01-27T06:24:05.320Z,96633.00
2024-01-27T06:25:05.306Z,96634.00
2024-01-27T06:26:05.381Z,96636.00
2024-01-27T06:27:05.351Z,96638.00
2024-01-27T06:28:05.329Z,96635.00
2024-01-27T06:29:05.342Z,96634.00
2024-01-27T06:30:05.332Z,96636.00
2024-01-27T06:31:05.368Z,96637.00
2024-01-27T06:32:05.347Z,96638.00
2024-01-27T06:33:05.467Z,96637.00
2024-01-27T06:34:05.445Z,96634.00
2024-01-27T06:35:05.488Z,96632.00
2024-01-27T06:36:05.388Z,96629.00
2024-01-27T06:37:05.349Z,96631.00
2024-01-27T06:38:05.326Z,96634.00
2024-01-27T06:39:05.413Z,96635.00
2024-01-27T06:40:05.411Z,96634.00
2024-01-27T06:41:05.381Z,96638.00
2024-01-27T06:42:05.440Z,96638.00
2024-01-27T06:43:05.402Z,96646.00
2024-01-27T06:44:05.400Z,96649.00
2024-01-27T06:45:05.452Z,96656.00
2024-01-27T06:46:05.473Z,96657.00
2024-01-27T06:47:05.486Z,96660.00
2024-01-27T06:48:05.639Z,96658.00
2024-01-27T06:49:05.655Z,96657.00
2024-01-27T06:50:05.589Z,96663.00
2024-01-27T06:51:05.570Z,96666.00
2024-01-27T06:52:05.587Z,96667.00
2024-01-27T06:53:05.590Z,96674.00
2024-01-27T06:54:05.673Z,96673.00
2024-01-27T06:55:05.952Z,96675.00
2024-01-27T06:56:05.680Z,96672.00
2024-01-27T06:57:05.749Z,96672.00
2024-01-27T06:58:05.662Z,96673.00
2024-01-27T06:59:05.736Z,96672.00
2024-01-27T07:00:05.751Z,96674.00
2024-01-27T07:01:05.790Z,96674.00
2024-01-27T07:02:05.739Z,96673.00
2024-01-27T07:03:05.973Z,96677.00
2024-01-27T07:04:05.847Z,96678.00
2024-01-27T07:05:05.817Z,96674.00
2024-01-27T07:06:05.929Z,96674.00
2024-01-27T07:07:05.904Z,96677.00
2024-01-27T07:08:05.865Z,96679.00
2024-01-27T07:09:05.973Z,96678.00
2024-01-27T07:10:05.976Z,96680.00
2024-01-27T07:11:05.946Z,96679.00
2024-01-27T07:12:06.049Z,96678.00
2024-01-27T07:13:06.104Z,96681.00
2024-01-27T07:14:06.108Z,96685.00
2024-01-27T07:15:06.152Z,96683.00
2024-01-27T07:16:06.242Z,96684.00
2024-01-27T07:17:06.250Z,96686.00
2024-01-27T07:18:06.743Z,96685.00
2024-01-27T07:19:06.448Z,96685.00
2024-01-27T07:20:06.486Z,96688.00
2024-01-27T07:21:09.290Z,96689.00
2024-01-27T07:22:06.528Z,96690.00
2024-01-27T07:23:06.505Z,96692.00
2024-01-27T07:24:06.552Z,96693.00
2024-01-27T07:25:06.517Z,96696.00
2024-01-27T07:26:06.545Z,96695.00
2024-01-27T07:27:06.552Z,96693.00
2024-01-27T07:28:06.597Z,96695.00
2024-01-27T07:29:06.602Z,96697.00
2024-01-27T07:30:06.697Z,96698.00
2024-01-27T07:31:06.534Z,96698.00
2024-01-27T07:32:06.560Z,96702.00
2024-01-27T07:33:06.701Z,96707.00
2024-01-27T07:34:06.612Z,96705.00
2024-01-27T07:35:06.595Z,96702.00
2024-01-27T07:36:06.600Z,96705.00
2024-01-27T07:37:06.568Z,96702.00
2024-01-27T07:38:06.604Z,96708.00
2024-01-27T07:39:06.612Z,96705.00
2024-01-27T07:40:06.632Z,96707.00
2024-01-27T07:41:06.527Z,96710.00
2024-01-27T07:42:06.591Z,96710.00
2024-01-27T07:43:06.611Z,96712.00
2024-01-27T07:44:06.542Z,96708.00
2024-01-27T07:45:06.656Z,96711.00
2024-01-27T07:46:06.571Z,96709.00
2024-01-27T07:47:06.541Z,96709.00
2024-01-27T07:48:06.695Z,96707.00
2024-01-27T07:49:06.610Z,96707.00
2024-01-27T07:50:06.645Z,96706.00
2024-01-27T07:51:06.659Z,96709.00
2024-01-27T07:52:06.561Z,96708.00
2024-01-27T07:53:06.576Z,96710.00
2024-01-27T07:54:06.613Z,96708.00
2024-01-27T07:55:07.010Z,96706.00
2024-01-27T07:56:08.619Z,96710.00
2024-01-27T07:57:06.636Z,96715.00
2024-01-27T07:58:07.484Z,96717.00
2024-01-27T07:59:06.656Z,96719.00
2024-01-27T08:00:07.023Z,96722.00
2024-01-27T08:01:06.746Z,96718.00
2024-01-27T08:02:06.791Z,96724.00
2024-01-27T08:03:06.904Z,96723.00
2024-01-27T08:04:06.993Z,96727.00
2024-01-27T08:05:07.001Z,96727.00
2024-01-27T08:06:07.035Z,96726.00
2024-01-27T08:07:07.138Z,96728.00
2024-01-27T08:08:07.093Z,96727.00
2024-01-27T08:09:07.194Z,96723.00
2024-01-27T08:10:07.530Z,96722.00
2024-01-27T08:11:07.190Z,96724.00
2024-01-27T08:12:07.311Z,96722.00
2024-01-27T08:13:07.325Z,96723.00
2024-01-27T08:14:07.378Z,96724.00
2024-01-27T08:15:07.409Z,96727.00
2024-01-27T08:16:07.451Z,96729.00
2024-01-27T08:17:07.482Z,96731.00
2024-01-27T08:18:07.692Z,96735.00
2024-01-27T08:19:07.698Z,96735.00
2024-01-27T08:20:07.745Z,96738.00
2024-01-27T08:21:07.702Z,96739.00
2024-01-27T08:22:07.753Z,96739.00
2024-01-27T08:23:07.947Z,96737.00
2024-01-27T08:24:07.893Z,96736.00
2024-01-27T08:25:07.849Z,96735.00
2024-01-27T08:26:07.928Z,96734.00
2024-01-27T08:27:07.947Z,96733.00
2024-01-27T08:28:07.999Z,96731.00
2024-01-27T08:29:08.044Z,96728.00
2024-01-27T08:30:08.149Z,96727.00
2024-01-27T08:31:08.157Z,96724.00
2024-01-27T08:32:08.271Z,96721.00
2024-01-27T08:33:08.417Z,96722.00
2024-01-27T08:34:08.476Z,96719.00
2024-01-27T08:35:11.351Z,96719.00
2024-01-27T08:36:08.412Z,96721.00
2024-01-27T08:37:08.399Z,96724.00
2024-01-27T08:38:08.409Z,96726.00
2024-01-27T08:39:08.396Z,96726.00
2024-01-27T08:40:08.395Z,96727.00
2024-01-27T08:41:08.368Z,96725.00
2024-01-27T08:42:08.404Z,96728.00
2024-01-27T08:43:08.380Z,96729.00
2024-01-27T08:44:08.481Z,96727.00
2024-01-27T08:45:08.451Z,96730.00
2024-01-27T08:46:08.398Z,96727.00
2024-01-27T08:47:08.867Z,96728.00
2024-01-27T08:48:08.558Z,96727.00
2024-01-27T08:49:08.468Z,96729.00
2024-01-27T08:50:08.558Z,96730.00
2024-01-27T08:51:08.417Z,96728.00
2024-01-27T08:52:08.412Z,96729.00
2024-01-27T08:53:08.437Z,96729.00
2024-01-27T08:54:08.521Z,96728.00
2024-01-27T08:55:08.473Z,96727.00
2024-01-27T08:56:08.424Z,96727.00
2024-01-27T08:57:08.428Z,96728.00
2024-01-27T08:58:08.407Z,96724.00
2024-01-27T08:59:08.411Z,96723.00
2024-01-27T09:00:08.440Z,96722.00
2024-01-27T09:01:08.492Z,96722.00
2024-01-27T09:02:08.409Z,96719.00
2024-01-27T09:03:08.498Z,96722.00
2024-01-27T09:04:08.454Z,96721.00
2024-01-27T09:05:08.448Z,96721.00
2024-01-27T09:06:08.507Z,96718.00
2024-01-27T09:07:08.433Z,96717.00
2024-01-27T09:08:08.396Z,96716.00
2024-01-27T09:09:08.434Z,96716.00
2024-01-27T09:10:08.421Z,96716.00
2024-01-27T09:11:08.429Z,96717.00
2024-01-27T09:12:08.526Z,96721.00
2024-01-27T09:13:08.545Z,96720.00
2024-01-27T09:14:08.685Z,96723.00
2024-01-27T09:15:08.769Z,96725.00
2024-01-27T09:16:08.837Z,96727.00
2024-01-27T09:17:08.792Z,96726.00
2024-01-27T09:18:09.050Z,96728.00
2024-01-27T09:19:08.973Z,96729.00
2024-01-27T09:20:09.020Z,96730.00
2024-01-27T09:21:09.035Z,96729.00
2024-01-27T09:22:09.070Z,96733.00
2024-01-27T09:23:09.090Z,96733.00
2024-01-27T09:24:09.154Z,96733.00
2024-01-27T09:25:09.261Z,96736.00
2024-01-27T09:26:09.268Z,96737.00
2024-01-27T09:27:09.298Z,96740.00
2024-01-27T09:28:09.364Z,96740.00
2024-01-27T09:29:09.400Z,96742.00
2024-01-27T09:30:09.501Z,96744.00
2024-01-27T09:31:09.521Z,96744.00
2024-01-27T09:32:09.563Z,96744.00
2024-01-27T09:33:09.820Z,96745.00
2024-01-27T09:34:09.936Z,96743.00
2024-01-27T09:35:09.739Z,96745.00
2024-01-27T09:36:09.824Z,96743.00
2024-01-27T09:37:09.890Z,96745.00
2024-01-27T09:38:09.908Z,96744.00
2024-01-27T09:39:09.995Z,96743.00
2024-01-27T09:40:09.991Z,96745.00
2024-01-27T09:41:09.989Z,96745.00
2024-01-27T09:42:10.101Z,96745.00
2024-01-27T09:43:10.072Z,96749.00
2024-01-27T09:44:10.104Z,96751.00
2024-01-27T09:45:10.164Z,96752.00
2024-01-27T09:46:10.153Z,96753.00
2024-01-27T09:47:10.221Z,96755.00
2024-01-27T09:48:10.324Z,96758.00
2024-01-27T09:49:10.412Z,96764.00
2024-01-27T09:50:10.338Z,96763.00
2024-01-27T09:51:10.405Z,96761.00
2024-01-27T09:52:10.413Z,96763.00
2024-01-27T09:53:10.494Z,96760.00
2024-01-27T09:54:10.514Z,96762.00
2024-01-27T09:55:10.490Z,96759.00
2024-01-27T09:56:10.557Z,96758.00
2024-01-27T09:57:10.648Z,96757.00
2024-01-27T09:58:10.672Z,96757.00
2024-01-27T09:59:10.693Z,96756.00
2024-01-27T10:00:10.736Z,96755.00
2024-01-27T10:01:10.740Z,96753.00
2024-01-27T10:02:10.747Z,96754.00
2024-01-27T10:03:10.841Z,96753.00
2024-01-27T10:04:10.867Z,96752.00
2024-01-27T10:05:10.809Z,96752.00
2024-01-27T10:06:10.915Z,96752.00
2024-01-27T10:07:10.933Z,96750.00
2024-01-27T10:08:10.881Z,96749.00
2024-01-27T10:09:11.021Z,96750.00
2024-01-27T10:10:10.914Z,96750.00
2024-01-27T10:11:10.926Z,96750.00
2024-01-27T10:12:11.032Z,96752.00
2024-01-27T10:13:10.994Z,96750.00
2024-01-27T10:14:11.093Z,96749.00
2024-01-27T10:15:11.086Z,96750.00
2024-01-27T10:16:11.158Z,96749.00
2024-01-27T10:17:11.171Z,96750.00
2024-01-27T10:18:11.314Z,96751.00
2024-01-27T10:19:12.141Z,96748.00
2024-01-27T10:20:11.524Z,96750.00
2024-01-27T10:21:11.328Z,96752.00
2024-01-27T10:22:11.404Z,96753.00
2024-01-27T10:23:11.378Z,96754.00
2024-01-27T10:24:11.492Z,96754.00
2024-01-27T10:25:11.498Z,96752.00
2024-01-27T10:26:11.550Z,96751.00
2024-01-27T10:27:11.548Z,96747.00
2024-01-27T10:28:11.630Z,96745.00
2024-01-27T10:29:11.704Z,96746.00
2024-01-27T10:30:11.742Z,96748.00
2024-01-27T10:31:11.823Z,96744.00
2024-01-27T10:32:11.851Z,96746.00
2024-01-27T10:33:12.180Z,96742.00
2024-01-27T10:34:12.121Z,96741.00
2024-01-27T10:35:12.101Z,96739.00
2024-01-27T10:36:12.188Z,96737.00
2024-01-27T10:37:12.164Z,96737.00
2024-01-27T10:38:12.198Z,96736.00
2024-01-27T10:39:12.251Z,96736.00
2024-01-27T10:40:12.349Z,96736.00
2024-01-27T10:41:12.354Z,96734.00
2024-01-27T10:42:12.509Z,96733.00
2024-01-27T10:43:12.476Z,96734.00
2024-01-27T10:44:12.527Z,96732.00
2024-01-27T10:45:12.637Z,96731.00
2024-01-27T10:46:12.651Z,96730.00
2024-01-27T10:47:12.684Z,96730.00
2024-01-27T10:48:12.908Z,96729.00
2024-01-27T10:49:12.904Z,96726.00
2024-01-27T10:50:12.878Z,96724.00
2024-01-27T10:51:12.999Z,96722.00
2024-01-27T10:52:13.008Z,96719.00
2024-01-27T10:53:13.030Z,96719.00
2024-01-27T10:54:13.181Z,96717.00
2024-01-27T10:55:13.141Z,96716.00
2024-01-27T10:56:13.184Z,96714.00
2024-01-27T10:57:13.323Z,96712.00
2024-01-27T10:58:13.315Z,96712.00
2024-01-27T10:59:13.417Z,96712.00
2024-01-27T11:00:13.584Z,96711.00
2024-01-27T11:01:13.753Z,96709.00
2024-01-27T11:02:13.616Z,96710.00
2024-01-27T11:03:13.687Z,96709.00
2024-01-27T11:04:13.746Z,96706.00
2024-01-27T11:05:13.827Z,96707.00
2024-01-27T11:06:13.941Z,96706.00
2024-01-27T11:07:13.921Z,96704.00
2024-01-27T11:08:13.959Z,96699.00
2024-01-27T11:09:14.060Z,96696.00
2024-01-27T11:10:14.142Z,96695.00
2024-01-27T11:11:14.194Z,96692.00
2024-01-27T11:12:14.340Z,96689.00
2024-01-27T11:13:14.277Z,96687.00
2024-01-27T11:14:14.334Z,96685.00
2024-01-27T11:15:14.422Z,96687.00
2024-01-27T11:16:14.391Z,96685.00
2024-01-27T11:17:14.445Z,96686.00
2024-01-27T11:18:15.316Z,96683.00
2024-01-27T11:19:14.661Z,96678.00
2024-01-27T11:20:14.524Z,96679.00
2024-01-27T11:21:14.510Z,96677.00
2024-01-27T11:22:14.534Z,96678.00
2024-01-27T11:23:14.564Z,96672.00
2024-01-27T11:24:14.589Z,96673.00
2024-01-27T11:25:14.559Z,96671.00
2024-01-27T11:26:14.573Z,96673.00
2024-01-27T11:27:14.640Z,96672.00
2024-01-27T11:28:14.689Z,96675.00
2024-01-27T11:29:14.671Z,96676.00
2024-01-27T11:30:14.811Z,96675.00
2024-01-27T11:31:14.830Z,96675.00
2024-01-27T11:32:15.548Z,96679.00
2024-01-27T11:33:15.029Z,96678.00
2024-01-27T11:34:15.120Z,96681.00
2024-01-27T11:35:15.618Z,96679.00
2024-01-27T11:36:15.196Z,96677.00
2024-01-27T11:37:15.261Z,96679.00
2024-01-27T11:38:15.300Z,96674.00
2024-01-27T11:39:15.371Z,96675.00
2024-01-27T11:40:15.425Z,96677.00
2024-01-27T11:41:15.497Z,96671.00
2024-01-27T11:42:15.890Z,96671.00
2024-01-27T11:43:15.683Z,96671.00
2024-01-27T11:44:15.659Z,96669.00
2024-01-27T11:45:16.145Z,96669.00